sensor_id;sensor_type;location;lat;lon;timestamp;pressure;altitude;pressure_sealevel;temperature;humidity
78123;BME280;67376;44.802;10.332;2023-04-25T00:00:31;100191.38;;;20.28;46.97
78123;BME280;67376;44.802;10.332;2023-04-25T00:02:57;100183.72;;;20.25;47.16
78123;BME280;67376;44.802;10.332;2023-04-25T00:05:25;100182.41;;;20.28;47.19
78123;BME280;67376;44.802;10.332;2023-04-25T00:07:51;100187.84;;;20.28;46.71
78123;BME280;67376;44.802;10.332;2023-04-25T00:10:16;100183.47;;;20.27;47.05
78123;BME280;67376;44.802;10.332;2023-04-25T00:12:42;100184.56;;;20.26;47.50
78123;BME280;67376;44.802;10.332;2023-04-25T00:15:08;100183.47;;;20.27;46.70
78123;BME280;67376;44.802;10.332;2023-04-25T00:17:34;100185.63;;;20.25;47.34
78123;BME280;67376;44.802;10.332;2023-04-25T00:20:01;100189.97;;;20.26;47.10
78123;BME280;67376;44.802;10.332;2023-04-25T00:22:30;100187.25;;;20.26;46.89
78123;BME280;67376;44.802;10.332;2023-04-25T00:24:56;100184.56;;;20.26;47.23
78123;BME280;67376;44.802;10.332;2023-04-25T00:27:25;100184.56;;;20.26;47.02
78123;BME280;67376;44.802;10.332;2023-04-25T00:29:51;100185.63;;;20.25;46.75
78123;BME280;67376;44.802;10.332;2023-04-25T00:32:16;100192.69;;;20.26;46.97
78123;BME280;67376;44.802;10.332;2023-04-25T00:34:42;100188.09;;;20.26;47.12
78123;BME280;67376;44.802;10.332;2023-04-25T00:37:07;100183.72;;;20.25;47.42
78123;BME280;67376;44.802;10.332;2023-04-25T00:39:33;100180.44;;;20.23;46.97
78123;BME280;67376;44.802;10.332;2023-04-25T00:41:58;100177.50;;;20.25;46.92
78123;BME280;67376;44.802;10.332;2023-04-25T00:44:24;100181.25;;;20.24;46.46
78123;BME280;67376;44.802;10.332;2023-04-25T00:46:50;100180.44;;;20.23;47.12
78123;BME280;67376;44.802;10.332;2023-04-25T00:49:16;100180.44;;;20.23;47.16
78123;BME280;67376;44.802;10.332;2023-04-25T00:51:42;100179.63;;;20.23;46.64
78123;BME280;67376;44.802;10.332;2023-04-25T00:54:11;100180.44;;;20.23;47.05
78123;BME280;67376;44.802;10.332;2023-04-25T00:56:37;100170.44;;;20.24;46.50
78123;BME280;67376;44.802;10.332;2023-04-25T00:59:03;100176.91;;;20.23;47.07
78123;BME280;67376;44.802;10.332;2023-04-25T01:01:29;100166.06;;;20.23;47.47
78123;BME280;67376;44.802;10.332;2023-04-25T01:03:58;100167.97;;;20.22;46.83
78123;BME280;67376;44.802;10.332;2023-04-25T01:06:23;100160.94;;;20.21;46.88
78123;BME280;67376;44.802;10.332;2023-04-25T01:08:49;100169.88;;;20.22;46.58
78123;BME280;67376;44.802;10.332;2023-04-25T01:11:16;100169.06;;;20.21;46.62
78123;BME280;67376;44.802;10.332;2023-04-25T01:13:41;100157.41;;;20.21;47.07
78123;BME280;67376;44.802;10.332;2023-04-25T01:16:07;100154.69;;;20.21;47.14
78123;BME280;67376;44.802;10.332;2023-04-25T01:18:32;100165.53;;;20.21;46.94
78123;BME280;67376;44.802;10.332;2023-04-25T01:21:07;100167.41;;;20.20;47.33
78123;BME280;67376;44.802;10.332;2023-04-25T01:23:34;100161.44;;;20.18;46.63
78123;BME280;67376;44.802;10.332;2023-04-25T01:26:00;100167.41;;;20.20;46.41
78123;BME280;67376;44.802;10.332;2023-04-25T01:28:26;100175.56;;;20.20;46.49
78123;BME280;67376;44.802;10.332;2023-04-25T01:30:52;100161.19;;;20.20;46.71
78123;BME280;67376;44.802;10.332;2023-04-25T01:33:19;100161.19;;;20.20;46.82
78123;BME280;67376;44.802;10.332;2023-04-25T01:35:46;100161.19;;;20.20;46.44
78123;BME280;67376;44.802;10.332;2023-04-25T01:38:12;100164.97;;;20.19;46.82
78123;BME280;67376;44.802;10.332;2023-04-25T01:40:40;100164.97;;;20.19;47.17
78123;BME280;67376;44.802;10.332;2023-04-25T01:43:06;100162.25;;;20.19;47.39
78123;BME280;67376;44.802;10.332;2023-04-25T01:45:33;100158.72;;;20.18;46.55
78123;BME280;67376;44.802;10.332;2023-04-25T01:48:01;100159.78;;;20.17;47.10
78123;BME280;67376;44.802;10.332;2023-04-25T01:50:27;100166.03;;;20.18;46.95
78123;BME280;67376;44.802;10.332;2023-04-25T01:52:52;100166.84;;;20.18;46.59
78123;BME280;67376;44.802;10.332;2023-04-25T01:55:19;100166.03;;;20.18;46.43
78123;BME280;67376;44.802;10.332;2023-04-25T01:57:44;100163.00;;;20.14;46.72
78123;BME280;67376;44.802;10.332;2023-04-25T02:00:10;100167.91;;;20.17;46.45
78123;BME280;67376;44.802;10.332;2023-04-25T02:02:36;100165.19;;;20.17;47.35
78123;BME280;67376;44.802;10.332;2023-04-25T02:05:01;100161.66;;;20.17;46.36
78123;BME280;67376;44.802;10.332;2023-04-25T02:07:26;100161.66;;;20.17;46.85
78123;BME280;67376;44.802;10.332;2023-04-25T02:09:52;100157.31;;;20.16;46.77
78123;BME280;67376;44.802;10.332;2023-04-25T02:12:17;100162.75;;;20.16;46.22
78123;BME280;67376;44.802;10.332;2023-04-25T02:14:43;100160.28;;;20.14;46.90
78123;BME280;67376;44.802;10.332;2023-04-25T02:17:08;100163.00;;;20.14;46.74
78123;BME280;67376;44.802;10.332;2023-04-25T02:19:34;100168.41;;;20.14;47.16
78123;BME280;67376;44.802;10.332;2023-04-25T02:21:59;100166.53;;;20.15;46.81
78123;BME280;67376;44.802;10.332;2023-04-25T02:24:25;100156.75;;;20.14;46.78
78123;BME280;67376;44.802;10.332;2023-04-25T02:26:53;100155.69;;;20.15;46.00
78123;BME280;67376;44.802;10.332;2023-04-25T02:29:20;100159.47;;;20.14;46.70
78123;BME280;67376;44.802;10.332;2023-04-25T02:31:46;100158.88;;;20.11;46.50
78123;BME280;67376;44.802;10.332;2023-04-25T02:34:11;100155.94;;;20.13;46.21
78123;BME280;67376;44.802;10.332;2023-04-25T02:36:37;100155.94;;;20.13;46.90
78123;BME280;67376;44.802;10.332;2023-04-25T02:39:02;100160.53;;;20.13;46.42
78123;BME280;67376;44.802;10.332;2023-04-25T02:41:28;100148.88;;;20.12;46.38
78123;BME280;67376;44.802;10.332;2023-04-25T02:43:53;100155.09;;;20.13;46.03
78123;BME280;67376;44.802;10.332;2023-04-25T02:46:19;100152.41;;;20.13;46.43
78123;BME280;67376;44.802;10.332;2023-04-25T02:48:45;100145.34;;;20.11;46.55
78123;BME280;67376;44.802;10.332;2023-04-25T02:51:10;100144.50;;;20.11;46.01
78123;BME280;67376;44.802;10.332;2023-04-25T02:53:36;100146.16;;;20.12;46.13
78123;BME280;67376;44.802;10.332;2023-04-25T02:56:01;100142.63;;;20.11;46.49
78123;BME280;67376;44.802;10.332;2023-04-25T02:58:27;100129.31;;;20.10;46.12
78123;BME280;67376;44.802;10.332;2023-04-25T03:00:53;100128.50;;;20.09;46.74
78123;BME280;67376;44.802;10.332;2023-04-25T03:03:18;100123.91;;;20.10;46.58
78123;BME280;67376;44.802;10.332;2023-04-25T03:05:48;100129.31;;;20.10;46.22
78123;BME280;67376;44.802;10.332;2023-04-25T03:08:13;100123.91;;;20.10;46.22
78123;BME280;67376;44.802;10.332;2023-04-25T03:10:39;100125.78;;;20.09;45.57
78123;BME280;67376;44.802;10.332;2023-04-25T03:13:04;100112.25;;;20.09;45.92
78123;BME280;67376;44.802;10.332;2023-04-25T03:15:30;100116.03;;;20.08;46.28
78123;BME280;67376;44.802;10.332;2023-04-25T03:17:56;100116.84;;;20.09;46.66
78123;BME280;67376;44.802;10.332;2023-04-25T03:20:21;100115.78;;;20.10;45.90
78123;BME280;67376;44.802;10.332;2023-04-25T03:22:47;100118.72;;;20.08;46.72
78123;BME280;67376;44.802;10.332;2023-04-25T03:25:12;100108.97;;;20.07;45.80
78123;BME280;67376;44.802;10.332;2023-04-25T03:27:38;100115.19;;;20.08;46.62
78123;BME280;67376;44.802;10.332;2023-04-25T03:30:04;100115.19;;;20.08;45.94
78123;BME280;67376;44.802;10.332;2023-04-25T03:32:30;100108.97;;;20.07;46.62
78123;BME280;67376;44.802;10.332;2023-04-25T03:34:55;100116.28;;;20.07;45.72
78123;BME280;67376;44.802;10.332;2023-04-25T03:37:21;100125.22;;;20.07;45.88
78123;BME280;67376;44.802;10.332;2023-04-25T03:39:46;100117.09;;;20.07;46.36
78123;BME280;67376;44.802;10.332;2023-04-25T03:42:12;100113.56;;;20.07;46.07
78123;BME280;67376;44.802;10.332;2023-04-25T03:44:37;100104.59;;;20.06;46.34
78123;BME280;67376;44.802;10.332;2023-04-25T03:47:03;100116.28;;;20.07;45.88
78123;BME280;67376;44.802;10.332;2023-04-25T03:49:28;100110.03;;;20.06;46.70
78123;BME280;67376;44.802;10.332;2023-04-25T03:51:54;100111.09;;;20.05;46.37
78123;BME280;67376;44.802;10.332;2023-04-25T03:54:20;100118.16;;;20.06;46.25
78123;BME280;67376;44.802;10.332;2023-04-25T03:56:45;100125.72;;;20.04;45.67
78123;BME280;67376;44.802;10.332;2023-04-25T03:59:11;100117.59;;;20.04;46.22
78123;BME280;67376;44.802;10.332;2023-04-25T04:01:36;100125.72;;;20.04;46.67
78123;BME280;67376;44.802;10.332;2023-04-25T04:04:02;100114.88;;;20.04;46.12
78123;BME280;67376;44.802;10.332;2023-04-25T04:06:29;100119.47;;;20.04;46.64
78123;BME280;67376;44.802;10.332;2023-04-25T04:08:55;100121.38;;;20.03;45.98
78123;BME280;67376;44.802;10.332;2023-04-25T04:11:20;100124.91;;;20.04;46.35
78123;BME280;67376;44.802;10.332;2023-04-25T04:13:46;100139.25;;;20.04;46.74
78123;BME280;67376;44.802;10.332;2023-04-25T04:16:11;100135.72;;;20.04;46.27
78123;BME280;67376;44.802;10.332;2023-04-25T04:18:37;100136.81;;;20.03;46.58
78123;BME280;67376;44.802;10.332;2023-04-25T04:21:02;100140.34;;;20.03;46.23
78123;BME280;67376;44.802;10.332;2023-04-25T04:23:28;100141.41;;;20.02;46.68
78123;BME280;67376;44.802;10.332;2023-04-25T04:25:54;100136.81;;;20.03;45.76
78123;BME280;67376;44.802;10.332;2023-04-25T04:28:20;100143.28;;;20.02;46.08
78123;BME280;67376;44.802;10.332;2023-04-25T04:30:47;100142.47;;;20.01;45.82
78123;BME280;67376;44.802;10.332;2023-04-25T04:33:13;100145.19;;;20.01;45.52
78123;BME280;67376;44.802;10.332;2023-04-25T04:35:40;100156.00;;;20.01;46.38
78123;BME280;67376;44.802;10.332;2023-04-25T04:38:07;100166.03;;;20.01;46.27
78123;BME280;67376;44.802;10.332;2023-04-25T04:40:32;100169.56;;;20.01;45.96
78123;BME280;67376;44.802;10.332;2023-04-25T04:42:58;100172.28;;;20.01;46.38
78123;BME280;67376;44.802;10.332;2023-04-25T04:45:23;100171.47;;;20.01;46.65
78123;BME280;67376;44.802;10.332;2023-04-25T04:47:49;100174.16;;;20.01;45.73
78123;BME280;67376;44.802;10.332;2023-04-25T04:50:15;100177.69;;;20.01;46.63
78123;BME280;67376;44.802;10.332;2023-04-25T04:52:41;100179.59;;;20.01;46.60
78123;BME280;67376;44.802;10.332;2023-04-25T04:55:08;100177.94;;;20.00;46.51
78123;BME280;67376;44.802;10.332;2023-04-25T04:57:34;100177.13;;;19.99;45.91
78123;BME280;67376;44.802;10.332;2023-04-25T05:00:00;100182.78;;;19.98;45.49
78123;BME280;67376;44.802;10.332;2023-04-25T05:02:26;100186.91;;;20.00;45.81
78123;BME280;67376;44.802;10.332;2023-04-25T05:04:52;100187.97;;;19.99;45.91
78123;BME280;67376;44.802;10.332;2023-04-25T05:07:18;100203.16;;;20.00;45.56
78123;BME280;67376;44.802;10.332;2023-04-25T05:09:44;100197.97;;;19.99;46.42
78123;BME280;67376;44.802;10.332;2023-04-25T05:12:09;100203.41;;;19.99;45.50
78123;BME280;67376;44.802;10.332;2023-04-25T05:14:35;100207.75;;;20.00;46.59
78123;BME280;67376;44.802;10.332;2023-04-25T05:17:00;100208.25;;;19.97;46.38
78123;BME280;67376;44.802;10.332;2023-04-25T05:19:26;100220.47;;;19.99;46.53
78123;BME280;67376;44.802;10.332;2023-04-25T05:21:52;100217.44;;;19.96;46.54
78123;BME280;67376;44.802;10.332;2023-04-25T05:24:18;100222.38;;;19.99;46.65
78123;BME280;67376;44.802;10.332;2023-04-25T05:26:43;100221.53;;;19.98;45.72
78123;BME280;67376;44.802;10.332;2023-04-25T05:29:09;100226.13;;;19.98;46.04
78123;BME280;67376;44.802;10.332;2023-04-25T05:31:35;100241.56;;;19.97;46.39
78123;BME280;67376;44.802;10.332;2023-04-25T05:34:01;100232.63;;;19.97;46.37
78123;BME280;67376;44.802;10.332;2023-04-25T05:36:27;100235.34;;;19.97;46.38
78123;BME280;67376;44.802;10.332;2023-04-25T05:38:53;100241.56;;;19.97;46.04
78123;BME280;67376;44.802;10.332;2023-04-25T05:41:18;100241.56;;;19.97;45.56
78123;BME280;67376;44.802;10.332;2023-04-25T05:43:44;100242.63;;;19.96;46.33
78123;BME280;67376;44.802;10.332;2023-04-25T05:46:12;100241.25;;;19.94;46.22
78123;BME280;67376;44.802;10.332;2023-04-25T05:48:39;100240.75;;;19.97;45.89
78123;BME280;67376;44.802;10.332;2023-04-25T05:51:05;100243.13;;;19.93;45.61
78123;BME280;67376;44.802;10.332;2023-04-25T05:53:30;100247.25;;;19.96;46.41
78123;BME280;67376;44.802;10.332;2023-04-25T05:55:56;100242.06;;;19.94;46.23
78123;BME280;67376;44.802;10.332;2023-04-25T05:58:22;100255.38;;;19.96;46.18
78123;BME280;67376;44.802;10.332;2023-04-25T06:00:47;100262.44;;;19.97;46.54
78123;BME280;67376;44.802;10.332;2023-04-25T06:03:12;100253.72;;;19.95;45.93
78123;BME280;67376;44.802;10.332;2023-04-25T06:05:43;100255.63;;;19.94;45.98
78123;BME280;67376;44.802;10.332;2023-04-25T06:08:09;100266.44;;;19.94;46.37
78123;BME280;67376;44.802;10.332;2023-04-25T06:10:35;100268.91;;;19.96;46.09
78123;BME280;67376;44.802;10.332;2023-04-25T06:13:01;100263.97;;;19.93;46.11
78123;BME280;67376;44.802;10.332;2023-04-25T06:15:27;100272.34;;;19.91;45.87
78123;BME280;67376;44.802;10.332;2023-04-25T06:17:53;100265.28;;;19.90;45.14
78123;BME280;67376;44.802;10.332;2023-04-25T06:20:18;100261.19;;;19.88;45.20
78123;BME280;67376;44.802;10.332;2023-04-25T06:22:48;100259.88;;;19.90;45.45
78123;BME280;67376;44.802;10.332;2023-04-25T06:25:14;100257.16;;;19.90;45.59
78123;BME280;67376;44.802;10.332;2023-04-25T06:27:39;100255.53;;;19.89;45.05
78123;BME280;67376;44.802;10.332;2023-04-25T06:30:05;100274.25;;;19.91;45.64
78123;BME280;67376;44.802;10.332;2023-04-25T06:32:31;100276.94;;;19.91;45.41
78123;BME280;67376;44.802;10.332;2023-04-25T06:34:57;100272.59;;;19.90;45.88
78123;BME280;67376;44.802;10.332;2023-04-25T06:37:23;100276.13;;;19.90;45.13
78123;BME280;67376;44.802;10.332;2023-04-25T06:39:48;100279.09;;;19.89;45.82
78123;BME280;67376;44.802;10.332;2023-04-25T06:42:14;100271.78;;;19.89;45.31
78123;BME280;67376;44.802;10.332;2023-04-25T06:44:40;100269.06;;;19.89;46.28
78123;BME280;67376;44.802;10.332;2023-04-25T06:47:05;100275.31;;;19.90;45.90
78123;BME280;67376;44.802;10.332;2023-04-25T06:49:30;100276.94;;;19.91;46.41
78123;BME280;67376;44.802;10.332;2023-04-25T06:51:56;100277.19;;;19.89;46.29
78123;BME280;67376;44.802;10.332;2023-04-25T06:54:21;100271.78;;;19.89;46.46
78123;BME280;67376;44.802;10.332;2023-04-25T06:56:46;100265.19;;;19.85;45.96
78123;BME280;67376;44.802;10.332;2023-04-25T06:59:12;100270.38;;;19.87;46.22
78123;BME280;67376;44.802;10.332;2023-04-25T07:01:37;100270.63;;;19.85;46.46
78123;BME280;67376;44.802;10.332;2023-04-25T07:04:03;100272.25;;;19.86;45.50
78123;BME280;67376;44.802;10.332;2023-04-25T07:06:28;100272.50;;;19.85;46.18
78123;BME280;67376;44.802;10.332;2023-04-25T07:08:54;100270.03;;;19.83;46.63
78123;BME280;67376;44.802;10.332;2023-04-25T07:11:20;100266.25;;;19.84;45.93
78123;BME280;67376;44.802;10.332;2023-04-25T07:13:46;100268.16;;;19.84;46.77
78123;BME280;67376;44.802;10.332;2023-04-25T07:16:12;100269.78;;;19.85;45.79
78123;BME280;67376;44.802;10.332;2023-04-25T07:18:37;100273.31;;;19.85;46.49
78123;BME280;67376;44.802;10.332;2023-04-25T07:21:03;100270.03;;;19.83;46.67
78123;BME280;67376;44.802;10.332;2023-04-25T07:23:28;100272.75;;;19.83;46.30
78123;BME280;67376;44.802;10.332;2023-04-25T07:25:53;100276.28;;;19.84;46.37
78123;BME280;67376;44.802;10.332;2023-04-25T07:28:19;100282.75;;;19.83;45.93
78123;BME280;67376;44.802;10.332;2023-04-25T07:30:45;100281.69;;;19.84;46.77
78123;BME280;67376;44.802;10.332;2023-04-25T07:33:10;100275.22;;;19.85;45.97
78123;BME280;67376;44.802;10.332;2023-04-25T07:35:36;100286.28;;;19.83;46.37
78123;BME280;67376;44.802;10.332;2023-04-25T07:38:02;100286.88;;;19.85;47.00
78123;BME280;67376;44.802;10.332;2023-04-25T07:40:28;100286.88;;;19.85;46.56
78123;BME280;67376;44.802;10.332;2023-04-25T07:42:54;100292.28;;;19.85;46.98
78123;BME280;67376;44.802;10.332;2023-04-25T07:45:19;100295.81;;;19.86;46.59
78123;BME280;67376;44.802;10.332;2023-04-25T07:47:45;100292.88;;;19.87;47.24
78123;BME280;67376;44.802;10.332;2023-04-25T07:50:10;100289.34;;;19.87;46.47
78123;BME280;67376;44.802;10.332;2023-04-25T07:52:36;100293.69;;;19.88;46.90
78123;BME280;67376;44.802;10.332;2023-04-25T07:55:02;100301.00;;;19.87;46.75
78123;BME280;67376;44.802;10.332;2023-04-25T07:57:29;100312.41;;;19.89;46.78
78123;BME280;67376;44.802;10.332;2023-04-25T07:59:54;100307.81;;;19.90;47.18
78123;BME280;67376;44.802;10.332;2023-04-25T08:02:19;100300.75;;;19.89;47.10
78123;BME280;67376;44.802;10.332;2023-04-25T08:04:45;100298.63;;;19.91;46.86
78123;BME280;67376;44.802;10.332;2023-04-25T08:07:11;100312.19;;;19.91;46.80
78123;BME280;67376;44.802;10.332;2023-04-25T08:09:36;100314.06;;;19.90;46.68
78123;BME280;67376;44.802;10.332;2023-04-25T08:12:03;100311.59;;;19.89;47.71
78123;BME280;67376;44.802;10.332;2023-04-25T08:14:29;100321.94;;;19.92;47.48
78123;BME280;67376;44.802;10.332;2023-04-25T08:17:01;100319.25;;;19.92;47.67
78123;BME280;67376;44.802;10.332;2023-04-25T08:19:26;100319.25;;;19.92;47.58
78123;BME280;67376;44.802;10.332;2023-04-25T08:21:51;100321.94;;;19.92;46.78
78123;BME280;67376;44.802;10.332;2023-04-25T08:24:17;100328.19;;;19.92;47.16
78123;BME280;67376;44.802;10.332;2023-04-25T08:26:42;100326.31;;;19.93;46.25
78123;BME280;67376;44.802;10.332;2023-04-25T08:29:08;100326.53;;;19.91;46.15
78123;BME280;67376;44.802;10.332;2023-04-25T08:31:33;100336.81;;;19.89;46.43
78123;BME280;67376;44.802;10.332;2023-04-25T08:33:59;100339.25;;;19.91;46.55
78123;BME280;67376;44.802;10.332;2023-04-25T08:36:25;100343.63;;;19.92;46.03
78123;BME280;67376;44.802;10.332;2023-04-25T08:38:53;100334.66;;;19.91;45.49
78123;BME280;67376;44.802;10.332;2023-04-25T08:41:19;100343.38;;;19.93;45.34
78123;BME280;67376;44.802;10.332;2023-04-25T08:43:48;100340.75;;;19.98;45.71
78123;BME280;67376;44.802;10.332;2023-04-25T08:46:18;100343.97;;;19.95;46.04
78123;BME280;67376;44.802;10.332;2023-04-25T08:48:47;100346.91;;;19.94;46.53
78123;BME280;67376;44.802;10.332;2023-04-25T08:51:21;100355.03;;;19.94;45.77
78123;BME280;67376;44.802;10.332;2023-04-25T08:53:52;100358.56;;;19.94;46.04
78123;BME280;67376;44.802;10.332;2023-04-25T08:56:17;100359.41;;;19.95;46.37
78123;BME280;67376;44.802;10.332;2023-04-25T08:58:47;100359.97;;;19.97;46.83
78123;BME280;67376;44.802;10.332;2023-04-25T09:01:13;100345.59;;;19.96;46.17
78123;BME280;67376;44.802;10.332;2023-04-25T09:03:38;100359.72;;;19.98;46.29
78123;BME280;67376;44.802;10.332;2023-04-25T09:06:04;100356.19;;;19.98;46.46
78123;BME280;67376;44.802;10.332;2023-04-25T09:08:30;100361.13;;;20.01;46.07
78123;BME280;67376;44.802;10.332;2023-04-25T09:10:55;100365.97;;;19.99;46.00
78123;BME280;67376;44.802;10.332;2023-04-25T09:13:26;100361.63;;;19.98;45.72
78123;BME280;67376;44.802;10.332;2023-04-25T09:15:56;100367.63;;;20.00;46.12
78123;BME280;67376;44.802;10.332;2023-04-25T09:18:23;100371.63;;;19.97;45.25
78123;BME280;67376;44.802;10.332;2023-04-25T09:20:51;100369.75;;;19.98;45.45
78123;BME280;67376;44.802;10.332;2023-04-25T09:23:18;100370.34;;;20.00;45.47
78123;BME280;67376;44.802;10.332;2023-04-25T09:25:45;100361.63;;;19.98;44.95
78123;BME280;67376;44.802;10.332;2023-04-25T09:28:12;100352.75;;;20.02;44.64
78123;BME280;67376;44.802;10.332;2023-04-25T09:30:37;100362.28;;;20.05;44.99
78123;BME280;67376;44.802;10.332;2023-04-25T09:33:06;100371.50;;;20.04;45.42
78123;BME280;67376;44.802;10.332;2023-04-25T09:35:37;100363.94;;;20.06;45.39
78123;BME280;67376;44.802;10.332;2023-04-25T09:38:12;100363.69;;;20.07;45.44
78123;BME280;67376;44.802;10.332;2023-04-25T09:40:42;100360.75;;;20.09;44.54
78123;BME280;67376;44.802;10.332;2023-04-25T09:43:18;100356.97;;;20.10;44.36
78123;BME280;67376;44.802;10.332;2023-04-25T09:45:44;100352.63;;;20.09;45.33
78123;BME280;67376;44.802;10.332;2023-04-25T09:48:12;100362.16;;;20.11;44.58
78123;BME280;67376;44.802;10.332;2023-04-25T09:50:38;100359.19;;;20.13;45.11
78123;BME280;67376;44.802;10.332;2023-04-25T09:53:05;100352.72;;;20.14;44.71
78123;BME280;67376;44.802;10.332;2023-04-25T09:55:34;100350.25;;;20.13;45.08
78123;BME280;67376;44.802;10.332;2023-04-25T09:58:04;100348.69;;;20.17;45.07
78123;BME280;67376;44.802;10.332;2023-04-25T10:00:32;100342.44;;;20.16;45.34
78123;BME280;67376;44.802;10.332;2023-04-25T10:03:00;100348.69;;;20.17;44.94
78123;BME280;67376;44.802;10.332;2023-04-25T10:05:29;100346.81;;;20.17;45.74
78123;BME280;67376;44.802;10.332;2023-04-25T10:07:55;100348.44;;;20.18;45.72
78123;BME280;67376;44.802;10.332;2023-04-25T10:10:21;100350.09;;;20.19;45.06
78123;BME280;67376;44.802;10.332;2023-04-25T10:12:51;100343.84;;;20.19;45.01
78123;BME280;67376;44.802;10.332;2023-04-25T10:15:17;100344.91;;;20.18;44.98
78123;BME280;67376;44.802;10.332;2023-04-25T10:17:43;100336.78;;;20.18;46.16
78123;BME280;67376;44.802;10.332;2023-04-25T10:20:09;100336.84;;;20.23;45.99
78123;BME280;67376;44.802;10.332;2023-04-25T10:22:44;100335.78;;;20.24;45.53
78123;BME280;67376;44.802;10.332;2023-04-25T10:25:10;100332.00;;;20.25;45.74
78123;BME280;67376;44.802;10.332;2023-04-25T10:27:36;100325.75;;;20.24;46.64
78123;BME280;67376;44.802;10.332;2023-04-25T10:30:11;100327.41;;;20.25;45.94
78123;BME280;67376;44.802;10.332;2023-04-25T10:32:41;100335.53;;;20.25;46.64
78123;BME280;67376;44.802;10.332;2023-04-25T10:35:25;100318.97;;;20.22;46.77
78123;BME280;67376;44.802;10.332;2023-04-25T10:40:22;100309.75;;;20.23;47.30
78123;BME280;67376;44.802;10.332;2023-04-25T10:42:48;100307.03;;;20.23;46.73
78123;BME280;67376;44.802;10.332;2023-04-25T10:45:14;100308.38;;;20.20;47.01
78123;BME280;67376;44.802;10.332;2023-04-25T10:47:45;100303.50;;;20.22;46.61
78123;BME280;67376;44.802;10.332;2023-04-25T10:50:11;100310.00;;;20.21;47.36
78123;BME280;67376;44.802;10.332;2023-04-25T10:52:38;100309.94;;;20.16;46.92
78123;BME280;67376;44.802;10.332;2023-04-25T10:55:05;100301.31;;;20.19;47.63
78123;BME280;67376;44.802;10.332;2023-04-25T10:57:35;100311.31;;;20.19;46.72
78123;BME280;67376;44.802;10.332;2023-04-25T11:00:05;100320.03;;;20.21;47.67
78123;BME280;67376;44.802;10.332;2023-04-25T11:02:31;100307.53;;;20.20;47.18
78123;BME280;67376;44.802;10.332;2023-04-25T11:04:56;100301.31;;;20.19;46.83
78123;BME280;67376;44.802;10.332;2023-04-25T11:07:38;100301.53;;;20.18;46.60
78123;BME280;67376;44.802;10.332;2023-04-25T11:10:04;100307.22;;;20.16;46.94
78123;BME280;67376;44.802;10.332;2023-04-25T11:12:30;100300.97;;;20.16;47.32
78123;BME280;67376;44.802;10.332;2023-04-25T11:15:06;100306.41;;;20.16;47.47
78123;BME280;67376;44.802;10.332;2023-04-25T11:17:33;100293.91;;;20.15;47.44
78123;BME280;67376;44.802;10.332;2023-04-25T11:19:59;100302.28;;;20.13;46.71
78123;BME280;67376;44.802;10.332;2023-04-25T11:22:27;100294.41;;;20.11;47.37
78123;BME280;67376;44.802;10.332;2023-04-25T11:24:53;100292.25;;;20.14;47.34
78123;BME280;67376;44.802;10.332;2023-04-25T11:27:18;100296.03;;;20.13;47.30
78123;BME280;67376;44.802;10.332;2023-04-25T11:29:44;100293.31;;;20.13;47.51
78123;BME280;67376;44.802;10.332;2023-04-25T11:32:09;100289.22;;;20.10;47.49
78123;BME280;67376;44.802;10.332;2023-04-25T11:34:35;100285.44;;;20.11;47.32
78123;BME280;67376;44.802;10.332;2023-04-25T11:37:01;100281.66;;;20.12;47.17
78123;BME280;67376;44.802;10.332;2023-04-25T11:39:27;100276.50;;;20.10;47.35
78123;BME280;67376;44.802;10.332;2023-04-25T11:41:54;100277.31;;;20.11;47.18
78123;BME280;67376;44.802;10.332;2023-04-25T11:44:20;100282.72;;;20.11;47.58
78123;BME280;67376;44.802;10.332;2023-04-25T11:46:46;100281.34;;;20.08;46.78
78123;BME280;67376;44.802;10.332;2023-04-25T11:49:13;100286.50;;;20.10;47.27
78123;BME280;67376;44.802;10.332;2023-04-25T11:51:42;100284.38;;;20.12;47.33
78123;BME280;67376;44.802;10.332;2023-04-25T11:54:10;100284.63;;;20.10;47.41
78123;BME280;67376;44.802;10.332;2023-04-25T11:56:37;100276.72;;;20.09;47.00
78123;BME280;67376;44.802;10.332;2023-04-25T11:59:04;100280.84;;;20.11;46.91
78123;BME280;67376;44.802;10.332;2023-04-25T12:01:31;100274.59;;;20.11;47.77
78123;BME280;67376;44.802;10.332;2023-04-25T12:03:57;100268.94;;;20.13;47.63
78123;BME280;67376;44.802;10.332;2023-04-25T12:06:27;100270.25;;;20.10;47.65
78123;BME280;67376;44.802;10.332;2023-04-25T12:09:03;100263.44;;;20.07;47.53
78123;BME280;67376;44.802;10.332;2023-04-25T12:11:32;100272.13;;;20.09;47.18
78123;BME280;67376;44.802;10.332;2023-04-25T12:14:03;100272.13;;;20.09;47.31
78123;BME280;67376;44.802;10.332;2023-04-25T12:16:39;100263.44;;;20.07;47.42
78123;BME280;67376;44.802;10.332;2023-04-25T12:19:05;100252.34;;;20.09;47.57
78123;BME280;67376;44.802;10.332;2023-04-25T12:21:32;100253.16;;;20.09;47.56
78123;BME280;67376;44.802;10.332;2023-04-25T12:24:09;100243.38;;;20.08;47.71
78123;BME280;67376;44.802;10.332;2023-04-25T12:26:53;100247.16;;;20.07;46.93
78123;BME280;67376;44.802;10.332;2023-04-25T12:29:23;100244.47;;;20.07;47.74
78123;BME280;67376;44.802;10.332;2023-04-25T12:31:51;100242.56;;;20.08;47.20
78123;BME280;67376;44.802;10.332;2023-04-25T12:34:20;100237.97;;;20.08;47.05
78123;BME280;67376;44.802;10.332;2023-04-25T12:36:46;100225.50;;;20.07;47.18
78123;BME280;67376;44.802;10.332;2023-04-25T12:39:16;100227.13;;;20.08;46.92